sensor_id;sensor_type;location;lat;lon;timestamp;P1;durP1;ratioP1;P2;durP2;ratioP2
58898;SDS011;44680;48.342;7.856;2023-03-14T00:01:50;2.50;;;2.30;;
58898;SDS011;44680;48.342;7.856;2023-03-14T00:04:15;2.60;;;2.40;;
58898;SDS011;44680;48.342;7.856;2023-03-14T00:06:40;2.25;;;2.15;;
58898;SDS011;44680;48.342;7.856;2023-03-14T00:09:06;2.40;;;2.20;;
58898;SDS011;44680;48.342;7.856;2023-03-14T00:11:31;3.13;;;2.28;;
58898;SDS011;44680;48.342;7.856;2023-03-14T00:13:57;2.33;;;2.13;;
58898;SDS011;44680;48.342;7.856;2023-03-14T00:16:22;2.38;;;2.10;;
58898;SDS011;44680;48.342;7.856;2023-03-14T00:18:47;2.28;;;2.08;;
58898;SDS011;44680;48.342;7.856;2023-03-14T00:21:16;2.20;;;2.10;;
58898;SDS011;44680;48.342;7.856;2023-03-14T00:23:41;2.35;;;1.67;;
58898;SDS011;44680;48.342;7.856;2023-03-14T00:26:08;3.20;;;2.10;;
58898;SDS011;44680;48.342;7.856;2023-03-14T00:28:38;3.15;;;2.13;;
58898;SDS011;44680;48.342;7.856;2023-03-14T00:31:04;4.90;;;2.05;;
58898;SDS011;44680;48.342;7.856;2023-03-14T00:33:30;2.30;;;2.10;;
58898;SDS011;44680;48.342;7.856;2023-03-14T00:35:56;3.45;;;1.60;;
58898;SDS011;44680;48.342;7.856;2023-03-14T00:38:23;1.88;;;1.77;;
58898;SDS011;44680;48.342;7.856;2023-03-14T00:40:49;4.13;;;2.17;;
58898;SDS011;44680;48.342;7.856;2023-03-14T00:43:15;2.15;;;1.98;;
58898;SDS011;44680;48.342;7.856;2023-03-14T00:45:40;3.55;;;2.00;;
58898;SDS011;44680;48.342;7.856;2023-03-14T00:48:05;3.85;;;2.40;;
58898;SDS011;44680;48.342;7.856;2023-03-14T00:50:31;1.90;;;1.80;;
58898;SDS011;44680;48.342;7.856;2023-03-14T00:52:56;2.05;;;1.85;;
58898;SDS011;44680;48.342;7.856;2023-03-14T00:55:21;2.25;;;2.08;;
58898;SDS011;44680;48.342;7.856;2023-03-14T00:57:47;1.95;;;1.83;;
58898;SDS011;44680;48.342;7.856;2023-03-14T01:00:12;2.28;;;1.90;;
58898;SDS011;44680;48.342;7.856;2023-03-14T01:02:38;2.17;;;1.90;;
58898;SDS011;44680;48.342;7.856;2023-03-14T01:05:03;2.80;;;2.00;;
58898;SDS011;44680;48.342;7.856;2023-03-14T01:07:29;1.77;;;1.67;;
58898;SDS011;44680;48.342;7.856;2023-03-14T01:09:54;3.08;;;1.92;;
58898;SDS011;44680;48.342;7.856;2023-03-14T01:12:20;2.25;;;2.10;;
58898;SDS011;44680;48.342;7.856;2023-03-14T01:14:45;1.92;;;1.83;;
58898;SDS011;44680;48.342;7.856;2023-03-14T01:17:10;2.13;;;1.90;;
58898;SDS011;44680;48.342;7.856;2023-03-14T01:19:36;2.65;;;2.30;;
58898;SDS011;44680;48.342;7.856;2023-03-14T01:22:01;4.90;;;2.00;;
58898;SDS011;44680;48.342;7.856;2023-03-14T01:24:27;1.98;;;1.88;;
58898;SDS011;44680;48.342;7.856;2023-03-14T01:26:55;4.00;;;2.20;;
58898;SDS011;44680;48.342;7.856;2023-03-14T01:29:20;1.92;;;1.83;;
58898;SDS011;44680;48.342;7.856;2023-03-14T01:31:45;2.08;;;1.98;;
58898;SDS011;44680;48.342;7.856;2023-03-14T01:34:11;2.42;;;2.30;;
58898;SDS011;44680;48.342;7.856;2023-03-14T01:36:36;4.10;;;2.20;;
58898;SDS011;44680;48.342;7.856;2023-03-14T01:39:02;3.38;;;2.50;;
58898;SDS011;44680;48.342;7.856;2023-03-14T01:41:27;2.42;;;1.90;;
58898;SDS011;44680;48.342;7.856;2023-03-14T01:43:53;2.22;;;2.00;;
58898;SDS011;44680;48.342;7.856;2023-03-14T01:46:26;2.65;;;2.40;;
58898;SDS011;44680;48.342;7.856;2023-03-14T01:59:30;3.65;;;2.08;;
58898;SDS011;44680;48.342;7.856;2023-03-14T02:01:56;6.80;;;2.47;;
58898;SDS011;44680;48.342;7.856;2023-03-14T02:04:22;3.72;;;2.30;;
58898;SDS011;44680;48.342;7.856;2023-03-14T02:09:23;4.90;;;1.90;;
58898;SDS011;44680;48.342;7.856;2023-03-14T02:11:49;6.13;;;2.10;;
58898;SDS011;44680;48.342;7.856;2023-03-14T02:14:34;3.88;;;2.38;;
58898;SDS011;44680;48.342;7.856;2023-03-14T02:17:01;3.63;;;1.98;;
58898;SDS011;44680;48.342;7.856;2023-03-14T02:19:31;5.57;;;2.10;;
58898;SDS011;44680;48.342;7.856;2023-03-14T02:22:08;2.28;;;1.95;;
58898;SDS011;44680;48.342;7.856;2023-03-14T02:27:10;3.78;;;2.28;;
58898;SDS011;44680;48.342;7.856;2023-03-14T02:29:50;3.17;;;2.33;;
58898;SDS011;44680;48.342;7.856;2023-03-14T02:32:24;3.83;;;2.20;;
58898;SDS011;44680;48.342;7.856;2023-03-14T02:34:52;3.08;;;2.15;;
58898;SDS011;44680;48.342;7.856;2023-03-14T02:37:20;4.93;;;2.25;;
58898;SDS011;44680;48.342;7.856;2023-03-14T02:39:47;2.38;;;2.13;;
58898;SDS011;44680;48.342;7.856;2023-03-14T02:42:14;3.75;;;2.03;;
58898;SDS011;44680;48.342;7.856;2023-03-14T02:44:59;5.25;;;2.20;;
58898;SDS011;44680;48.342;7.856;2023-03-14T02:47:48;3.15;;;2.33;;
58898;SDS011;44680;48.342;7.856;2023-03-14T02:50:17;8.68;;;2.97;;
58898;SDS011;44680;48.342;7.856;2023-03-14T02:52:45;2.22;;;2.03;;
58898;SDS011;44680;48.342;7.856;2023-03-14T02:55:11;3.95;;;2.28;;
58898;SDS011;44680;48.342;7.856;2023-03-14T02:57:36;3.97;;;2.50;;
58898;SDS011;44680;48.342;7.856;2023-03-14T03:00:02;6.05;;;2.33;;
58898;SDS011;44680;48.342;7.856;2023-03-14T03:02:31;5.22;;;2.35;;
58898;SDS011;44680;48.342;7.856;2023-03-14T03:04:57;6.22;;;2.47;;
58898;SDS011;44680;48.342;7.856;2023-03-14T03:07:23;2.45;;;2.15;;
58898;SDS011;44680;48.342;7.856;2023-03-14T03:09:48;5.43;;;2.20;;
58898;SDS011;44680;48.342;7.856;2023-03-14T03:12:14;5.72;;;1.98;;
58898;SDS011;44680;48.342;7.856;2023-03-14T03:14:39;4.25;;;2.33;;
58898;SDS011;44680;48.342;7.856;2023-03-14T03:17:05;7.15;;;1.88;;
58898;SDS011;44680;48.342;7.856;2023-03-14T03:19:31;3.55;;;2.58;;
58898;SDS011;44680;48.342;7.856;2023-03-14T03:21:57;2.10;;;1.95;;
58898;SDS011;44680;48.342;7.856;2023-03-14T03:24:22;3.63;;;2.10;;
58898;SDS011;44680;48.342;7.856;2023-03-14T03:26:48;4.85;;;2.50;;
58898;SDS011;44680;48.342;7.856;2023-03-14T03:29:13;7.25;;;2.30;;
58898;SDS011;44680;48.342;7.856;2023-03-14T03:31:39;3.03;;;2.03;;
58898;SDS011;44680;48.342;7.856;2023-03-14T03:34:04;2.90;;;2.30;;
58898;SDS011;44680;48.342;7.856;2023-03-14T03:36:30;3.60;;;2.17;;
58898;SDS011;44680;48.342;7.856;2023-03-14T03:38:55;4.22;;;2.47;;
58898;SDS011;44680;48.342;7.856;2023-03-14T03:41:20;6.28;;;2.38;;
58898;SDS011;44680;48.342;7.856;2023-03-14T03:43:45;7.70;;;2.40;;
58898;SDS011;44680;48.342;7.856;2023-03-14T03:46:11;4.00;;;2.05;;
58898;SDS011;44680;48.342;7.856;2023-03-14T03:48:36;7.22;;;2.08;;
58898;SDS011;44680;48.342;7.856;2023-03-14T03:51:02;2.53;;;1.92;;
58898;SDS011;44680;48.342;7.856;2023-03-14T03:53:27;2.58;;;1.88;;
58898;SDS011;44680;48.342;7.856;2023-03-14T03:55:52;6.97;;;2.45;;
58898;SDS011;44680;48.342;7.856;2023-03-14T03:58:18;5.00;;;2.65;;
58898;SDS011;44680;48.342;7.856;2023-03-14T04:00:43;2.90;;;1.90;;
58898;SDS011;44680;48.342;7.856;2023-03-14T04:03:08;6.93;;;2.35;;
58898;SDS011;44680;48.342;7.856;2023-03-14T04:05:34;3.13;;;2.15;;
58898;SDS011;44680;48.342;7.856;2023-03-14T04:08:00;5.07;;;2.22;;
58898;SDS011;44680;48.342;7.856;2023-03-14T04:10:26;3.70;;;1.90;;
58898;SDS011;44680;48.342;7.856;2023-03-14T04:12:51;6.45;;;2.30;;
58898;SDS011;44680;48.342;7.856;2023-03-14T04:15:17;6.50;;;2.33;;
58898;SDS011;44680;48.342;7.856;2023-03-14T04:17:42;2.20;;;1.83;;
58898;SDS011;44680;48.342;7.856;2023-03-14T04:20:08;5.63;;;2.30;;
58898;SDS011;44680;48.342;7.856;2023-03-14T04:22:37;2.10;;;2.00;;
58898;SDS011;44680;48.342;7.856;2023-03-14T04:25:03;4.90;;;2.00;;
58898;SDS011;44680;48.342;7.856;2023-03-14T04:27:29;3.55;;;2.00;;
58898;SDS011;44680;48.342;7.856;2023-03-14T04:29:54;4.07;;;2.08;;
58898;SDS011;44680;48.342;7.856;2023-03-14T04:32:19;6.07;;;2.33;;
58898;SDS011;44680;48.342;7.856;2023-03-14T04:34:45;4.10;;;2.10;;
58898;SDS011;44680;48.342;7.856;2023-03-14T04:37:10;3.22;;;2.30;;
58898;SDS011;44680;48.342;7.856;2023-03-14T04:39:36;2.97;;;1.80;;
58898;SDS011;44680;48.342;7.856;2023-03-14T04:42:01;1.83;;;1.73;;
58898;SDS011;44680;48.342;7.856;2023-03-14T04:44:26;2.45;;;1.85;;
58898;SDS011;44680;48.342;7.856;2023-03-14T04:46:52;9.40;;;2.53;;
58898;SDS011;44680;48.342;7.856;2023-03-14T04:49:17;4.45;;;2.55;;
58898;SDS011;44680;48.342;7.856;2023-03-14T04:51:42;2.10;;;1.55;;
58898;SDS011;44680;48.342;7.856;2023-03-14T04:54:07;2.35;;;1.60;;
58898;SDS011;44680;48.342;7.856;2023-03-14T04:56:33;5.80;;;2.08;;
58898;SDS011;44680;48.342;7.856;2023-03-14T04:58:58;5.13;;;2.45;;
58898;SDS011;44680;48.342;7.856;2023-03-14T05:01:23;3.03;;;1.60;;
58898;SDS011;44680;48.342;7.856;2023-03-14T05:03:49;3.25;;;2.10;;
58898;SDS011;44680;48.342;7.856;2023-03-14T05:06:14;4.95;;;2.25;;
58898;SDS011;44680;48.342;7.856;2023-03-14T05:08:39;2.30;;;2.10;;
58898;SDS011;44680;48.342;7.856;2023-03-14T05:11:05;2.63;;;1.77;;
58898;SDS011;44680;48.342;7.856;2023-03-14T05:13:30;2.42;;;1.90;;
58898;SDS011;44680;48.342;7.856;2023-03-14T05:16:02;4.63;;;2.10;;
58898;SDS011;44680;48.342;7.856;2023-03-14T05:18:29;4.50;;;2.20;;
58898;SDS011;44680;48.342;7.856;2023-03-14T05:20:54;8.00;;;2.40;;
58898;SDS011;44680;48.342;7.856;2023-03-14T05:23:19;1.83;;;1.70;;
58898;SDS011;44680;48.342;7.856;2023-03-14T05:25:45;3.22;;;1.77;;
58898;SDS011;44680;48.342;7.856;2023-03-14T05:28:10;4.53;;;2.20;;
58898;SDS011;44680;48.342;7.856;2023-03-14T05:30:35;4.13;;;2.10;;
58898;SDS011;44680;48.342;7.856;2023-03-14T05:33:01;3.08;;;2.00;;
58898;SDS011;44680;48.342;7.856;2023-03-14T05:35:26;3.83;;;2.00;;
58898;SDS011;44680;48.342;7.856;2023-03-14T05:37:51;3.55;;;2.05;;
58898;SDS011;44680;48.342;7.856;2023-03-14T05:40:16;5.95;;;2.50;;
58898;SDS011;44680;48.342;7.856;2023-03-14T05:42:42;7.00;;;2.63;;
58898;SDS011;44680;48.342;7.856;2023-03-14T05:45:07;9.55;;;2.55;;
58898;SDS011;44680;48.342;7.856;2023-03-14T05:47:33;5.32;;;2.45;;
58898;SDS011;44680;48.342;7.856;2023-03-14T05:49:58;4.30;;;2.03;;
58898;SDS011;44680;48.342;7.856;2023-03-14T05:52:23;2.25;;;2.00;;
58898;SDS011;44680;48.342;7.856;2023-03-14T05:54:48;2.40;;;2.20;;
58898;SDS011;44680;48.342;7.856;2023-03-14T05:57:14;3.70;;;2.10;;
58898;SDS011;44680;48.342;7.856;2023-03-14T05:59:39;9.57;;;2.30;;
58898;SDS011;44680;48.342;7.856;2023-03-14T06:02:04;2.83;;;1.73;;
58898;SDS011;44680;48.342;7.856;2023-03-14T06:04:30;2.97;;;1.92;;
58898;SDS011;44680;48.342;7.856;2023-03-14T06:06:55;2.75;;;1.80;;
58898;SDS011;44680;48.342;7.856;2023-03-14T06:09:20;4.72;;;2.10;;
58898;SDS011;44680;48.342;7.856;2023-03-14T06:11:47;1.92;;;1.80;;
58898;SDS011;44680;48.342;7.856;2023-03-14T06:14:13;2.08;;;1.88;;
58898;SDS011;44680;48.342;7.856;2023-03-14T06:16:38;3.35;;;1.85;;
58898;SDS011;44680;48.342;7.856;2023-03-14T06:19:03;2.00;;;1.90;;
58898;SDS011;44680;48.342;7.856;2023-03-14T06:21:28;1.80;;;1.70;;
58898;SDS011;44680;48.342;7.856;2023-03-14T06:23:54;2.95;;;1.90;;
58898;SDS011;44680;48.342;7.856;2023-03-14T06:26:20;5.85;;;1.90;;
58898;SDS011;44680;48.342;7.856;2023-03-14T06:28:45;1.92;;;1.60;;
58898;SDS011;44680;48.342;7.856;2023-03-14T06:31:10;2.28;;;1.75;;
58898;SDS011;44680;48.342;7.856;2023-03-14T06:33:35;2.30;;;2.00;;
58898;SDS011;44680;48.342;7.856;2023-03-14T06:36:01;2.85;;;2.08;;
58898;SDS011;44680;48.342;7.856;2023-03-14T06:38:26;4.30;;;2.00;;
58898;SDS011;44680;48.342;7.856;2023-03-14T06:40:51;4.20;;;2.13;;
58898;SDS011;44680;48.342;7.856;2023-03-14T06:43:17;4.43;;;2.25;;
58898;SDS011;44680;48.342;7.856;2023-03-14T06:45:42;3.65;;;1.90;;
58898;SDS011;44680;48.342;7.856;2023-03-14T06:48:07;3.40;;;2.08;;
58898;SDS011;44680;48.342;7.856;2023-03-14T06:50:33;5.72;;;2.30;;
58898;SDS011;44680;48.342;7.856;2023-03-14T06:52:58;3.88;;;2.13;;
58898;SDS011;44680;48.342;7.856;2023-03-14T06:55:23;2.03;;;1.83;;
58898;SDS011;44680;48.342;7.856;2023-03-14T06:57:49;2.08;;;1.80;;
58898;SDS011;44680;48.342;7.856;2023-03-14T07:00:14;3.90;;;2.15;;
58898;SDS011;44680;48.342;7.856;2023-03-14T07:02:40;3.67;;;1.83;;
58898;SDS011;44680;48.342;7.856;2023-03-14T07:05:05;2.03;;;1.77;;
58898;SDS011;44680;48.342;7.856;2023-03-14T07:07:31;2.67;;;1.50;;
58898;SDS011;44680;48.342;7.856;2023-03-14T07:09:56;2.20;;;2.03;;
58898;SDS011;44680;48.342;7.856;2023-03-14T07:12:22;2.55;;;1.60;;
58898;SDS011;44680;48.342;7.856;2023-03-14T07:14:47;3.45;;;1.80;;
58898;SDS011;44680;48.342;7.856;2023-03-14T07:17:12;1.85;;;1.63;;
58898;SDS011;44680;48.342;7.856;2023-03-14T07:19:37;2.60;;;1.48;;
58898;SDS011;44680;48.342;7.856;2023-03-14T07:22:04;4.43;;;2.20;;
58898;SDS011;44680;48.342;7.856;2023-03-14T07:24:29;4.43;;;2.40;;
58898;SDS011;44680;48.342;7.856;2023-03-14T07:26:54;3.92;;;2.25;;
58898;SDS011;44680;48.342;7.856;2023-03-14T07:29:20;4.32;;;2.28;;
58898;SDS011;44680;48.342;7.856;2023-03-14T07:31:45;2.92;;;1.90;;
58898;SDS011;44680;48.342;7.856;2023-03-14T07:34:10;3.03;;;2.22;;
58898;SDS011;44680;48.342;7.856;2023-03-14T07:36:36;2.08;;;1.80;;
58898;SDS011;44680;48.342;7.856;2023-03-14T07:39:01;2.38;;;2.00;;
58898;SDS011;44680;48.342;7.856;2023-03-14T07:41:26;2.13;;;1.95;;
58898;SDS011;44680;48.342;7.856;2023-03-14T07:43:52;5.63;;;1.90;;
58898;SDS011;44680;48.342;7.856;2023-03-14T07:46:17;4.35;;;1.80;;
58898;SDS011;44680;48.342;7.856;2023-03-14T07:48:43;2.38;;;2.17;;
58898;SDS011;44680;48.342;7.856;2023-03-14T07:51:08;4.35;;;2.05;;
58898;SDS011;44680;48.342;7.856;2023-03-14T07:53:33;3.25;;;2.22;;
58898;SDS011;44680;48.342;7.856;2023-03-14T07:55:59;5.95;;;1.75;;
58898;SDS011;44680;48.342;7.856;2023-03-14T07:58:24;1.90;;;1.80;;
58898;SDS011;44680;48.342;7.856;2023-03-14T08:00:50;1.75;;;1.65;;
58898;SDS011;44680;48.342;7.856;2023-03-14T08:03:16;2.10;;;1.75;;
58898;SDS011;44680;48.342;7.856;2023-03-14T08:05:41;3.53;;;2.00;;
58898;SDS011;44680;48.342;7.856;2023-03-14T08:08:07;6.53;;;2.17;;
58898;SDS011;44680;48.342;7.856;2023-03-14T08:10:32;2.78;;;1.58;;
58898;SDS011;44680;48.342;7.856;2023-03-14T08:12:58;1.60;;;1.50;;
58898;SDS011;44680;48.342;7.856;2023-03-14T08:15:25;2.00;;;1.80;;
58898;SDS011;44680;48.342;7.856;2023-03-14T08:17:51;1.75;;;1.65;;
58898;SDS011;44680;48.342;7.856;2023-03-14T08:20:18;2.78;;;2.28;;
58898;SDS011;44680;48.342;7.856;2023-03-14T08:22:43;3.08;;;2.50;;
58898;SDS011;44680;48.342;7.856;2023-03-14T08:25:09;1.65;;;1.55;;
58898;SDS011;44680;48.342;7.856;2023-03-14T08:27:35;2.30;;;1.85;;
58898;SDS011;44680;48.342;7.856;2023-03-14T08:30:03;1.70;;;1.60;;
58898;SDS011;44680;48.342;7.856;2023-03-14T08:32:29;4.38;;;1.80;;
58898;SDS011;44680;48.342;7.856;2023-03-14T08:34:55;4.57;;;1.70;;
58898;SDS011;44680;48.342;7.856;2023-03-14T08:37:20;1.67;;;1.67;;
58898;SDS011;44680;48.342;7.856;2023-03-14T08:39:46;2.10;;;2.00;;
58898;SDS011;44680;48.342;7.856;2023-03-14T08:42:12;2.80;;;1.80;;
58898;SDS011;44680;48.342;7.856;2023-03-14T08:44:37;1.80;;;1.70;;
58898;SDS011;44680;48.342;7.856;2023-03-14T08:47:03;2.15;;;2.05;;
58898;SDS011;44680;48.342;7.856;2023-03-14T08:49:28;1.70;;;1.60;;
58898;SDS011;44680;48.342;7.856;2023-03-14T08:51:53;1.50;;;1.40;;
58898;SDS011;44680;48.342;7.856;2023-03-14T08:54:19;1.80;;;1.80;;
58898;SDS011;44680;48.342;7.856;2023-03-14T08:56:44;2.15;;;1.95;;
58898;SDS011;44680;48.342;7.856;2023-03-14T08:59:09;1.77;;;1.67;;
58898;SDS011;44680;48.342;7.856;2023-03-14T09:01:35;1.90;;;1.80;;
58898;SDS011;44680;48.342;7.856;2023-03-14T09:04:01;1.92;;;1.83;;
58898;SDS011;44680;48.342;7.856;2023-03-14T09:06:26;2.05;;;1.75;;
58898;SDS011;44680;48.342;7.856;2023-03-14T09:08:51;3.10;;;1.60;;
58898;SDS011;44680;48.342;7.856;2023-03-14T09:11:17;3.20;;;2.00;;
58898;SDS011;44680;48.342;7.856;2023-03-14T09:13:43;2.13;;;2.03;;
58898;SDS011;44680;48.342;7.856;2023-03-14T09:16:09;2.80;;;1.65;;
58898;SDS011;44680;48.342;7.856;2023-03-14T09:18:34;2.70;;;1.70;;
58898;SDS011;44680;48.342;7.856;2023-03-14T09:21:00;1.40;;;1.30;;
58898;SDS011;44680;48.342;7.856;2023-03-14T09:23:25;1.95;;;1.30;;
58898;SDS011;44680;48.342;7.856;2023-03-14T09:25:55;1.65;;;1.55;;
58898;SDS011;44680;48.342;7.856;2023-03-14T09:28:20;3.42;;;2.10;;
58898;SDS011;44680;48.342;7.856;2023-03-14T09:30:46;4.22;;;1.88;;
58898;SDS011;44680;48.342;7.856;2023-03-14T09:33:11;1.70;;;1.60;;
58898;SDS011;44680;48.342;7.856;2023-03-14T09:35:36;2.10;;;1.90;;
58898;SDS011;44680;48.342;7.856;2023-03-14T09:38:02;3.38;;;1.90;;
58898;SDS011;44680;48.342;7.856;2023-03-14T09:40:30;1.52;;;1.40;;
58898;SDS011;44680;48.342;7.856;2023-03-14T09:42:56;3.72;;;1.75;;
58898;SDS011;44680;48.342;7.856;2023-03-14T09:45:28;1.58;;;1.50;;
58898;SDS011;44680;48.342;7.856;2023-03-14T09:47:55;2.40;;;2.17;;
58898;SDS011;44680;48.342;7.856;2023-03-14T09:50:22;1.60;;;1.50;;
58898;SDS011;44680;48.342;7.856;2023-03-14T09:52:49;1.63;;;1.52;;
58898;SDS011;44680;48.342;7.856;2023-03-14T09:55:20;2.97;;;1.90;;
58898;SDS011;44680;48.342;7.856;2023-03-14T09:57:47;1.80;;;1.70;;
58898;SDS011;44680;48.342;7.856;2023-03-14T10:00:14;1.70;;;1.60;;
58898;SDS011;44680;48.342;7.856;2023-03-14T10:02:43;1.77;;;1.67;;
58898;SDS011;44680;48.342;7.856;2023-03-14T10:05:22;1.58;;;1.48;;
58898;SDS011;44680;48.342;7.856;2023-03-14T10:07:48;1.92;;;1.80;;
58898;SDS011;44680;48.342;7.856;2023-03-14T10:10:18;2.05;;;1.95;;
58898;SDS011;44680;48.342;7.856;2023-03-14T10:12:46;3.33;;;1.95;;
58898;SDS011;44680;48.342;7.856;2023-03-14T10:15:13;2.17;;;2.08;;
58898;SDS011;44680;48.342;7.856;2023-03-14T10:17:44;2.40;;;1.80;;
58898;SDS011;44680;48.342;7.856;2023-03-14T10:23:24;2.40;;;2.20;;
58898;SDS011;44680;48.342;7.856;2023-03-14T10:28:42;1.95;;;1.85;;
58898;SDS011;44680;48.342;7.856;2023-03-14T10:31:12;3.63;;;3.00;;
58898;SDS011;44680;48.342;7.856;2023-03-14T10:33:37;3.25;;;2.20;;
58898;SDS011;44680;48.342;7.856;2023-03-14T10:36:04;2.22;;;1.90;;
58898;SDS011;44680;48.342;7.856;2023-03-14T10:38:33;3.03;;;2.00;;
58898;SDS011;44680;48.342;7.856;2023-03-14T10:40:59;2.38;;;2.17;;
58898;SDS011;44680;48.342;7.856;2023-03-14T10:43:26;2.35;;;2.13;;
58898;SDS011;44680;48.342;7.856;2023-03-14T10:46:01;2.00;;;1.90;;
58898;SDS011;44680;48.342;7.856;2023-03-14T10:48:33;3.50;;;2.40;;
58898;SDS011;44680;48.342;7.856;2023-03-14T10:51:06;1.80;;;1.80;;
58898;SDS011;44680;48.342;7.856;2023-03-14T10:53:34;2.20;;;2.10;;
58898;SDS011;44680;48.342;7.856;2023-03-14T10:56:04;2.10;;;2.00;;
58898;SDS011;44680;48.342;7.856;2023-03-14T10:58:31;2.25;;;2.15;;
58898;SDS011;44680;48.342;7.856;2023-03-14T11:03:38;2.28;;;1.58;;
58898;SDS011;44680;48.342;7.856;2023-03-14T11:11:22;2.10;;;2.00;;
58898;SDS011;44680;48.342;7.856;2023-03-14T11:17:10;1.98;;;1.58;;
58898;SDS011;44680;48.342;7.856;2023-03-14T11:22:08;2.08;;;1.95;;
58898;SDS011;44680;48.342;7.856;2023-03-14T11:25:01;2.30;;;2.05;;
58898;SDS011;44680;48.342;7.856;2023-03-14T11:27:36;2.42;;;2.03;;
58898;SDS011;44680;48.342;7.856;2023-03-14T11:33:08;2.47;;;2.33;;
58898;SDS011;44680;48.342;7.856;2023-03-14T11:35:49;2.50;;;2.30;;
58898;SDS011;44680;48.342;7.856;2023-03-14T11:38:37;2.53;;;2.33;;
58898;SDS011;44680;48.342;7.856;2023-03-14T11:41:13;3.00;;;2.80;;
58898;SDS011;44680;48.342;7.856;2023-03-14T11:43:41;3.65;;;2.60;;
58898;SDS011;44680;48.342;7.856;2023-03-14T11:46:15;3.70;;;2.92;;
58898;SDS011;44680;48.342;7.856;2023-03-14T11:48:45;2.50;;;2.25;;
58898;SDS011;44680;48.342;7.856;2023-03-14T11:51:38;2.65;;;2.45;;
58898;SDS011;44680;48.342;7.856;2023-03-14T11:54:09;2.42;;;2.22;;
58898;SDS011;44680;48.342;7.856;2023-03-14T11:56:44;1.83;;;1.73;;
58898;SDS011;44680;48.342;7.856;2023-03-14T12:04:54;1.83;;;1.80;;
58898;SDS011;44680;48.342;7.856;2023-03-14T12:13:04;2.42;;;2.22;;
58898;SDS011;44680;48.342;7.856;2023-03-14T12:15:31;4.03;;;2.20;;
58898;SDS011;44680;48.342;7.856;2023-03-14T12:18:03;6.00;;;2.38;;
58898;SDS011;44680;48.342;7.856;2023-03-14T12:20:28;2.45;;;2.33;;
58898;SDS011;44680;48.342;7.856;2023-03-14T12:23:01;3.42;;;3.15;;
58898;SDS011;44680;48.342;7.856;2023-03-14T12:25:28;3.30;;;3.03;;
58898;SDS011;44680;48.342;7.856;2023-03-14T12:38:03;7.00;;;3.88;;
58898;SDS011;44680;48.342;7.856;2023-03-14T12:43:38;4.28;;;2.53;;
58898;SDS011;44680;48.342;7.856;2023-03-14T12:48:32;3.70;;;2.38;;
58898;SDS011;44680;48.342;7.856;2023-03-14T12:51:02;2.10;;;2.00;;
58898;SDS011;44680;48.342;7.856;2023-03-14T12:53:51;4.20;;;2.50;;
58898;SDS011;44680;48.342;7.856;2023-03-14T12:56:24;4.55;;;2.75;;
58898;SDS011;44680;48.342;7.856;2023-03-14T13:01:44;2.63;;;2.40;;
58898;SDS011;44680;48.342;7.856;2023-03-14T13:04:11;3.08;;;2.75;;
58898;SDS011;44680;48.342;7.856;2023-03-14T13:09:55;7.82;;;3.80;;
58898;SDS011;44680;48.342;7.856;2023-03-14T13:12:11;2.88;;;2.67;;
58898;SDS011;44680;48.342;7.856;2023-03-14T13:14:46;5.20;;;2.67;;
58898;SDS011;44680;48.342;7.856;2023-03-14T13:17:14;2.45;;;2.25;;
58898;SDS011;44680;48.342;7.856;2023-03-14T13:19:41;5.88;;;2.88;;
58898;SDS011;44680;48.342;7.856;2023-03-14T13:22:22;6.20;;;3.22;;
58898;SDS011;44680;48.342;7.856;2023-03-14T13:24:50;3.28;;;2.83;;
58898;SDS011;44680;48.342;7.856;2023-03-14T13:27:23;4.10;;;2.95;;
58898;SDS011;44680;48.342;7.856;2023-03-14T13:29:50;4.53;;;2.08;;
58898;SDS011;44680;48.342;7.856;2023-03-14T13:34:48;3.38;;;3.05;;
58898;SDS011;44680;48.342;7.856;2023-03-14T13:37:20;2.72;;;2.28;;
58898;SDS011;44680;48.342;7.856;2023-03-14T13:39:51;3.85;;;2.40;;
58898;SDS011;44680;48.342;7.856;2023-03-14T13:42:20;2.55;;;2.35;;
58898;SDS011;44680;48.342;7.856;2023-03-14T13:44:46;2.53;;;2.25;;
58898;SDS011;44680;48.342;7.856;2023-03-14T13:47:16;5.30;;;2.85;;
58898;SDS011;44680;48.342;7.856;2023-03-14T13:49:43;2.92;;;2.03;;
58898;SDS011;44680;48.342;7.856;2023-03-14T13:52:42;3.88;;;2.28;;
58898;SDS011;44680;48.342;7.856;2023-03-14T13:55:02;3.47;;;1.80;;
58898;SDS011;44680;48.342;7.856;2023-03-14T14:00:21;4.38;;;2.15;;
58898;SDS011;44680;48.342;7.856;2023-03-14T14:02:52;3.80;;;2.10;;
58898;SDS011;44680;48.342;7.856;2023-03-14T14:05:19;2.50;;;2.28;;
58898;SDS011;44680;48.342;7.856;2023-03-14T14:07:44;6.60;;;3.50;;
58898;SDS011;44680;48.342;7.856;2023-03-14T14:10:11;4.72;;;2.10;;
58898;SDS011;44680;48.342;7.856;2023-03-14T14:12:39;4.22;;;1.77;;
58898;SDS011;44680;48.342;7.856;2023-03-14T14:15:21;4.60;;;2.30;;
58898;SDS011;44680;48.342;7.856;2023-03-14T14:17:51;3.47;;;2.20;;
58898;SDS011;44680;48.342;7.856;2023-03-14T14:23:04;5.63;;;2.38;;
58898;SDS011;44680;48.342;7.856;2023-03-14T14:25:31;4.25;;;2.85;;
58898;SDS011;44680;48.342;7.856;2023-03-14T14:27:56;3.80;;;2.38;;
58898;SDS011;44680;48.342;7.856;2023-03-14T14:32:48;2.45;;;1.88;;
58898;SDS011;44680;48.342;7.856;2023-03-14T14:35:23;4.15;;;2.40;;
58898;SDS011;44680;48.342;7.856;2023-03-14T14:40:25;2.83;;;2.40;;
58898;SDS011;44680;48.342;7.856;2023-03-14T14:42:51;2.47;;;2.28;;
58898;SDS011;44680;48.342;7.856;2023-03-14T14:45:21;3.17;;;2.53;;
58898;SDS011;44680;48.342;7.856;2023-03-14T14:47:53;4.00;;;2.15;;
58898;SDS011;44680;48.342;7.856;2023-03-14T14:50:30;6.90;;;2.85;;
58898;SDS011;44680;48.342;7.856;2023-03-14T14:52:58;11.00;;;3.60;;
58898;SDS011;44680;48.342;7.856;2023-03-14T14:55:28;2.80;;;2.50;;
58898;SDS011;44680;48.342;7.856;2023-03-14T14:57:58;7.25;;;3.40;;
58898;SDS011;44680;48.342;7.856;2023-03-14T15:00:39;3.45;;;2.97;;
58898;SDS011;44680;48.342;7.856;2023-03-14T15:03:04;4.35;;;2.75;;
58898;SDS011;44680;48.342;7.856;2023-03-14T15:05:30;6.00;;;3.55;;
58898;SDS011;44680;48.342;7.856;2023-03-14T15:08:00;7.70;;;3.10;;
58898;SDS011;44680;48.342;7.856;2023-03-14T15:10:26;7.25;;;2.80;;
58898;SDS011;44680;48.342;7.856;2023-03-14T15:12:51;10.27;;;3.65;;
58898;SDS011;44680;48.342;7.856;2023-03-14T15:15:16;6.65;;;2.78;;
58898;SDS011;44680;48.342;7.856;2023-03-14T15:17:42;10.52;;;3.33;;
58898;SDS011;44680;48.342;7.856;2023-03-14T15:20:14;6.43;;;3.20;;
58898;SDS011;44680;48.342;7.856;2023-03-14T15:22:41;7.78;;;3.75;;
58898;SDS011;44680;48.342;7.856;2023-03-14T15:25:06;4.78;;;2.78;;
58898;SDS011;44680;48.342;7.856;2023-03-14T15:27:32;5.63;;;3.03;;
58898;SDS011;44680;48.342;7.856;2023-03-14T15:29:58;5.32;;;3.08;;
58898;SDS011;44680;48.342;7.856;2023-03-14T15:32:26;6.13;;;3.47;;
58898;SDS011;44680;48.342;7.856;2023-03-14T15:34:52;7.18;;;3.47;;
58898;SDS011;44680;48.342;7.856;2023-03-14T15:37:19;5.13;;;2.95;;
58898;SDS011;44680;48.342;7.856;2023-03-14T15:39:44;6.43;;;4.07;;
58898;SDS011;44680;48.342;7.856;2023-03-14T15:42:10;8.40;;;3.60;;
58898;SDS011;44680;48.342;7.856;2023-03-14T15:44:35;7.32;;;3.60;;
58898;SDS011;44680;48.342;7.856;2023-03-14T15:47:01;10.48;;;4.35;;
58898;SDS011;44680;48.342;7.856;2023-03-14T15:49:27;8.40;;;4.10;;
58898;SDS011;44680;48.342;7.856;2023-03-14T15:51:52;15.15;;;4.57;;
58898;SDS011;44680;48.342;7.856;2023-03-14T15:54:17;6.30;;;3.88;;
58898;SDS011;44680;48.342;7.856;2023-03-14T15:56:43;5.43;;;3.38;;
58898;SDS011;44680;48.342;7.856;2023-03-14T15:59:08;6.57;;;3.67;;
58898;SDS011;44680;48.342;7.856;2023-03-14T16:01:33;6.88;;;3.60;;
58898;SDS011;44680;48.342;7.856;2023-03-14T16:03:59;5.80;;;2.95;;
58898;SDS011;44680;48.342;7.856;2023-03-14T16:06:24;3.70;;;2.33;;
58898;SDS011;44680;48.342;7.856;2023-03-14T16:08:49;11.68;;;2.40;;
58898;SDS011;44680;48.342;7.856;2023-03-14T16:11:15;3.15;;;2.58;;
58898;SDS011;44680;48.342;7.856;2023-03-14T16:13:42;4.07;;;3.20;;